DRRL weather

Tillabery Airport
Tillabery, Tillabéri Region, Niger

Public forecast

Using degrees Celsius for public forecast. Weather courtesy of forecast.io.

METAR (pilot weather report)

Report is more than 6 hours old.

Retrieved 2009/09/25 16:40 UTC (10 years ago):

DRRL 251640Z 26004KT 9999 FEW040CB BKN300

TAF (pilot weather forecast)

Closest forecast is Diori Hamani International Airport, 60.1 nm (111.2 km) SE. Retrieved 2019/04/19 12:21 UTC (2 hours ago):

TAF DRRN 191100Z 1912/2018 16008KT 6000 NSC TEMPO 1917/1920 3500 DU TEMPO 2006/2008 3500 DU TEMPO 2008/20012 12018KT 2500 BLDU